createdAt,value
2022-10-04T00:02:19.756Z,95.40
2022-10-04T00:05:05.462Z,95.50
2022-10-04T00:07:46.809Z,95.53
2022-10-04T00:10:25.941Z,95.38
2022-10-04T00:13:02.311Z,95.18
2022-10-04T00:15:37.745Z,94.98
2022-10-04T00:18:32.524Z,94.93
2022-10-04T00:21:08.116Z,95.11
2022-10-04T00:23:44.704Z,95.17
2022-10-04T00:26:28.180Z,95.57
2022-10-04T00:29:01.133Z,95.74
2022-10-04T00:31:34.528Z,96.25
2022-10-04T00:34:15.365Z,96.73
2022-10-04T00:36:56.874Z,96.65
2022-10-04T00:39:39.864Z,96.74
2022-10-04T00:42:20.193Z,97.12
2022-10-04T00:45:03.776Z,97.24
2022-10-04T00:47:44.150Z,97.33
2022-10-04T00:50:30.656Z,97.34
2022-10-04T00:53:05.639Z,97.24
2022-10-04T00:55:49.909Z,97.22
2022-10-04T00:58:33.696Z,97.58
2022-10-04T01:01:07.752Z,97.84
2022-10-04T01:03:44.343Z,98.58
2022-10-04T01:06:19.280Z,99.59
2022-10-04T01:08:55.622Z,100.00
2022-10-04T01:11:35.025Z,100.00
2022-10-04T01:14:18.264Z,100.00
2022-10-04T01:16:51.891Z,100.00
2022-10-04T01:19:30.241Z,100.00
2022-10-04T01:22:18.946Z,100.00
2022-10-04T01:24:52.919Z,100.00
2022-10-04T01:27:42.469Z,100.00
2022-10-04T01:30:18.104Z,100.00
2022-10-04T01:32:51.086Z,100.00
2022-10-04T01:35:24.379Z,100.00
2022-10-04T01:37:57.569Z,100.00
2022-10-04T01:40:32.113Z,100.00
2022-10-04T01:43:08.457Z,100.00
2022-10-04T01:45:45.350Z,100.00
2022-10-04T01:48:23.457Z,100.00
2022-10-04T01:51:07.297Z,100.00
2022-10-04T01:53:48.241Z,100.00
2022-10-04T01:56:28.757Z,100.00
2022-10-04T01:59:07.617Z,100.00
2022-10-04T02:01:50.701Z,100.00
2022-10-04T02:04:34.543Z,100.00
2022-10-04T02:07:13.764Z,100.00
2022-10-04T02:09:51.062Z,100.00
2022-10-04T02:12:24.803Z,100.00
2022-10-04T02:15:02.150Z,100.00
2022-10-04T02:17:43.181Z,100.00
2022-10-04T02:20:21.925Z,100.00
2022-10-04T02:23:02.131Z,100.00
2022-10-04T02:25:37.047Z,100.00
2022-10-04T02:28:14.132Z,100.00
2022-10-04T02:31:10.750Z,100.00
2022-10-04T02:33:46.810Z,100.00
2022-10-04T02:36:21.438Z,100.00
2022-10-04T02:39:04.258Z,100.00
2022-10-04T02:41:50.761Z,100.00
2022-10-04T02:44:58.150Z,100.00
2022-10-04T02:47:47.132Z,100.00
2022-10-04T02:50:40.333Z,100.00
2022-10-04T02:53:26.901Z,100.00
2022-10-04T02:56:00.258Z,100.00
2022-10-04T02:58:34.696Z,100.00
2022-10-04T03:01:07.765Z,100.00
2022-10-04T03:03:42.307Z,100.00
2022-10-04T03:06:19.022Z,100.00
2022-10-04T03:08:59.705Z,100.00
2022-10-04T03:11:36.516Z,100.00
2022-10-04T03:14:16.300Z,100.00
2022-10-04T03:16:53.993Z,100.00
2022-10-04T03:19:29.115Z,100.00
2022-10-04T03:22:06.326Z,100.00
2022-10-04T03:24:48.010Z,100.00
2022-10-04T03:27:33.388Z,100.00
2022-10-04T03:30:07.634Z,100.00
2022-10-04T03:32:41.839Z,100.00
2022-10-04T03:35:25.553Z,100.00
2022-10-04T03:37:59.927Z,100.00
2022-10-04T03:40:34.655Z,100.00
2022-10-04T03:43:06.416Z,100.00
2022-10-04T03:45:39.483Z,100.00
2022-10-04T03:48:16.315Z,100.00
2022-10-04T03:50:50.631Z,100.00
2022-10-04T03:53:42.378Z,100.00
2022-10-04T03:56:35.436Z,100.00
2022-10-04T03:59:10.182Z,100.00
2022-10-04T04:02:09.773Z,100.00
2022-10-04T04:04:53.767Z,100.00
2022-10-04T04:07:47.064Z,100.00
2022-10-04T04:10:32.880Z,100.00
2022-10-04T04:13:28.016Z,100.00
2022-10-04T04:16:03.516Z,100.00
2022-10-04T04:18:39.667Z,100.00
2022-10-04T04:21:16.389Z,100.00
2022-10-04T04:24:09.782Z,100.00
2022-10-04T04:26:48.989Z,100.00
2022-10-04T04:29:50.263Z,100.00
2022-10-04T04:32:29.017Z,100.00
2022-10-04T04:35:08.706Z,100.00
2022-10-04T04:37:41.346Z,100.00
2022-10-04T04:40:21.024Z,100.00
2022-10-04T04:42:54.650Z,100.00
2022-10-04T04:45:32.498Z,100.00
2022-10-04T04:48:05.269Z,100.00
2022-10-04T04:50:41.450Z,100.00
2022-10-04T04:53:22.474Z,100.00
2022-10-04T04:56:04.848Z,100.00
2022-10-04T04:58:42.770Z,100.00
2022-10-04T05:01:28.669Z,100.00
2022-10-04T05:04:15.321Z,100.00
2022-10-04T05:07:07.240Z,100.00
2022-10-04T05:09:40.775Z,100.00
2022-10-04T05:12:19.780Z,100.00
2022-10-04T05:14:55.355Z,100.00
2022-10-04T05:17:33.826Z,100.00
2022-10-04T05:20:08.185Z,100.00
2022-10-04T05:22:44.743Z,100.00
2022-10-04T05:25:22.324Z,100.00
2022-10-04T05:27:56.648Z,100.00
2022-10-04T05:30:55.683Z,100.00
2022-10-04T05:33:50.409Z,100.00
2022-10-04T05:36:43.808Z,100.00
2022-10-04T05:39:53.148Z,100.00
2022-10-04T05:42:48.755Z,100.00
2022-10-04T05:45:25.538Z,100.00
2022-10-04T05:48:01.765Z,100.00
2022-10-04T05:50:43.202Z,100.00
2022-10-04T05:53:35.935Z,100.00
2022-10-04T05:56:22.397Z,100.00
2022-10-04T05:59:26.996Z,100.00
2022-10-04T06:02:10.614Z,100.00
2022-10-04T06:05:15.627Z,100.00
2022-10-04T06:07:59.938Z,100.00
2022-10-04T06:10:55.246Z,100.00
2022-10-04T06:14:07.595Z,100.00
2022-10-04T06:17:05.838Z,100.00
2022-10-04T06:19:58.403Z,100.00
2022-10-04T06:22:32.984Z,100.00
2022-10-04T06:25:10.705Z,100.00
2022-10-04T06:27:54.273Z,100.00
2022-10-04T06:30:28.024Z,100.00
2022-10-04T06:33:29.503Z,100.00
2022-10-04T06:36:44.075Z,100.00
2022-10-04T06:39:33.364Z,100.00
2022-10-04T06:42:35.405Z,100.00
2022-10-04T06:45:41.799Z,100.00
2022-10-04T06:48:34.195Z,100.00
2022-10-04T06:51:41.288Z,100.00
2022-10-04T06:54:56.315Z,100.00
2022-10-04T06:58:07.144Z,100.00
2022-10-04T07:01:26.969Z,100.00
2022-10-04T07:04:24.944Z,100.00
2022-10-04T07:07:30.627Z,100.00
2022-10-04T07:10:23.859Z,100.00
2022-10-04T07:13:07.315Z,100.00
2022-10-04T07:15:57.890Z,100.00
2022-10-04T07:18:38.990Z,100.00
2022-10-04T07:21:15.830Z,100.00
2022-10-04T07:24:01.259Z,100.00
2022-10-04T07:26:49.492Z,100.00
2022-10-04T07:29:29.443Z,100.00
2022-10-04T07:32:12.235Z,100.00
2022-10-04T07:34:58.503Z,100.00
2022-10-04T07:37:36.129Z,100.00
2022-10-04T07:40:13.290Z,100.00
2022-10-04T07:42:56.568Z,100.00
2022-10-04T07:45:43.110Z,100.00
2022-10-04T07:48:27.421Z,100.00
2022-10-04T07:51:25.476Z,100.00
2022-10-04T07:54:05.561Z,100.00
2022-10-04T07:56:52.362Z,100.00
2022-10-04T07:59:36.886Z,100.00
2022-10-04T08:02:38.059Z,100.00
2022-10-04T08:05:30.308Z,99.83
2022-10-04T08:08:48.668Z,99.66
2022-10-04T08:11:49.023Z,99.80
2022-10-04T08:14:49.283Z,99.08
2022-10-04T08:17:56.794Z,98.73
2022-10-04T08:21:00.128Z,98.01
2022-10-04T08:23:55.704Z,96.51
2022-10-04T08:26:51.719Z,95.85
2022-10-04T08:29:51.528Z,94.68
2022-10-04T08:32:55.049Z,94.00
2022-10-04T08:35:40.328Z,94.00
2022-10-04T08:38:40.885Z,93.26
2022-10-04T08:41:58.992Z,92.76
2022-10-04T08:44:45.192Z,92.56
2022-10-04T08:47:28.826Z,91.64
2022-10-04T08:50:31.453Z,91.38
2022-10-04T08:53:16.624Z,90.42
2022-10-04T08:56:09.087Z,88.25
2022-10-04T08:59:00.596Z,88.25
2022-10-04T09:01:50.071Z,87.59
2022-10-04T09:04:53.310Z,86.19
2022-10-04T09:08:06.105Z,85.51
2022-10-04T09:10:59.586Z,84.77
2022-10-04T09:13:58.604Z,83.29
2022-10-04T09:16:47.291Z,84.23
2022-10-04T09:19:55.372Z,83.47
2022-10-04T09:22:55.868Z,82.02
2022-10-04T09:25:36.168Z,81.43
2022-10-04T09:28:53.085Z,80.93
2022-10-04T09:31:55.385Z,80.84
2022-10-04T09:35:12.233Z,80.59
2022-10-04T09:38:08.269Z,81.08
2022-10-04T09:41:04.135Z,80.13
2022-10-04T09:43:56.640Z,79.85
2022-10-04T09:46:47.971Z,79.01
2022-10-04T09:49:47.722Z,77.46
2022-10-04T09:52:49.410Z,75.99
2022-10-04T09:55:52.914Z,74.83
2022-10-04T09:58:50.003Z,74.43
2022-10-04T10:01:51.523Z,73.99
2022-10-04T10:05:02.162Z,74.30
2022-10-04T10:07:56.058Z,72.40
2022-10-04T10:11:21.449Z,72.52
2022-10-04T10:14:23.712Z,72.07
2022-10-04T10:17:07.042Z,71.30
2022-10-04T10:20:18.352Z,71.16
2022-10-04T10:23:23.543Z,70.21
2022-10-04T10:26:31.038Z,71.30
2022-10-04T10:29:24.820Z,71.20
2022-10-04T10:32:17.043Z,71.23
2022-10-04T10:35:09.621Z,70.19
2022-10-04T10:37:53.174Z,67.73
2022-10-04T10:40:31.946Z,66.32
2022-10-04T10:43:09.671Z,65.24
2022-10-04T10:46:31.439Z,65.26
2022-10-04T10:49:22.406Z,65.51
2022-10-04T10:52:34.483Z,64.48
2022-10-04T10:55:30.394Z,64.35
2022-10-04T10:58:17.555Z,64.40
2022-10-04T11:00:57.797Z,63.44
2022-10-04T11:04:07.523Z,62.77
2022-10-04T11:07:08.149Z,62.21
2022-10-04T11:10:07.175Z,61.77
2022-10-04T11:13:05.325Z,60.95
2022-10-04T11:16:19.491Z,60.58
2022-10-04T11:19:48.323Z,60.22
2022-10-04T11:22:44.946Z,60.06
2022-10-04T11:26:00.631Z,59.88
2022-10-04T11:28:46.003Z,58.32
2022-10-04T11:31:34.321Z,58.27
2022-10-04T11:34:20.351Z,58.08
2022-10-04T11:37:21.115Z,58.89
2022-10-04T11:40:33.754Z,58.52
2022-10-04T11:43:34.042Z,56.76
2022-10-04T11:46:23.568Z,57.53
2022-10-04T11:49:17.329Z,57.67
2022-10-04T11:52:39.799Z,57.60
2022-10-04T11:55:44.410Z,57.08
2022-10-04T11:58:33.392Z,56.92
2022-10-04T12:01:41.105Z,57.62
2022-10-04T12:04:56.697Z,57.70
2022-10-04T12:07:56.429Z,58.23
2022-10-04T12:10:39.736Z,57.00
2022-10-04T12:13:50.985Z,56.84
2022-10-04T12:16:41.328Z,56.15
2022-10-04T12:19:52.652Z,56.68
2022-10-04T12:22:49.127Z,57.00
2022-10-04T12:25:47.474Z,56.82
2022-10-04T12:28:34.880Z,55.93
2022-10-04T12:31:24.590Z,56.67
2022-10-04T12:34:21.824Z,55.65
2022-10-04T12:37:22.375Z,55.90
2022-10-04T12:40:25.215Z,55.89
2022-10-04T12:43:43.723Z,54.75
2022-10-04T12:46:36.140Z,55.01
2022-10-04T12:49:28.697Z,55.06
2022-10-04T12:52:20.492Z,55.67
2022-10-04T12:55:22.438Z,53.79
2022-10-04T12:58:05.809Z,54.16
2022-10-04T13:00:43.355Z,54.51
2022-10-04T13:03:44.670Z,54.78
2022-10-04T13:06:30.860Z,54.76
2022-10-04T13:09:18.101Z,54.23
2022-10-04T13:12:02.295Z,54.51
2022-10-04T13:15:00.458Z,55.15
2022-10-04T13:18:04.399Z,54.21
2022-10-04T13:21:00.071Z,54.78
2022-10-04T13:23:46.774Z,55.32
2022-10-04T13:26:46.082Z,56.20
2022-10-04T13:29:44.718Z,57.05
2022-10-04T13:32:29.971Z,57.95
2022-10-04T13:35:27.681Z,58.61
2022-10-04T13:38:39.742Z,59.70
2022-10-04T13:41:17.699Z,60.05
2022-10-04T13:44:24.125Z,60.25
2022-10-04T13:47:21.112Z,60.99
2022-10-04T13:50:17.676Z,61.34
2022-10-04T13:53:25.065Z,61.71
2022-10-04T13:56:37.355Z,62.18
2022-10-04T13:59:46.383Z,62.56
2022-10-04T14:03:02.263Z,62.96
2022-10-04T14:05:58.147Z,63.04
2022-10-04T14:08:57.900Z,63.62
2022-10-04T14:12:04.020Z,63.64
2022-10-04T14:14:47.545Z,63.91
2022-10-04T14:17:52.216Z,64.01
2022-10-04T14:21:16.588Z,64.53
2022-10-04T14:24:12.483Z,64.26
2022-10-04T14:27:05.060Z,64.30
2022-10-04T14:30:08.541Z,64.17
2022-10-04T14:33:37.648Z,64.22
2022-10-04T14:36:51.253Z,64.39
2022-10-04T14:40:02.289Z,64.67
2022-10-04T14:43:04.269Z,64.94
2022-10-04T14:46:24.679Z,65.17
2022-10-04T14:49:27.974Z,65.46
2022-10-04T14:52:33.891Z,65.21
2022-10-04T14:55:41.741Z,65.35
2022-10-04T14:58:22.329Z,65.50
2022-10-04T15:01:17.795Z,65.57
2022-10-04T15:04:32.771Z,65.45
2022-10-04T15:07:32.607Z,65.55
2022-10-04T15:10:19.636Z,65.51
2022-10-04T15:13:23.616Z,65.41
2022-10-04T15:16:18.935Z,65.21
2022-10-04T15:19:00.845Z,65.67
2022-10-04T15:21:58.024Z,66.00
2022-10-04T15:24:47.346Z,66.38
2022-10-04T15:27:50.655Z,66.40
2022-10-04T15:30:40.398Z,66.95
2022-10-04T15:33:42.158Z,67.15
2022-10-04T15:36:45.947Z,67.32
2022-10-04T15:39:33.936Z,67.63
2022-10-04T15:42:26.022Z,67.96
2022-10-04T15:45:19.024Z,68.11
2022-10-04T15:48:23.374Z,68.29
2022-10-04T15:51:17.715Z,68.38
2022-10-04T15:54:13.799Z,68.55
2022-10-04T15:57:00.290Z,68.54
2022-10-04T15:59:59.655Z,68.63
2022-10-04T16:02:47.495Z,68.78
2022-10-04T16:05:43.362Z,68.99
2022-10-04T16:09:07.938Z,69.13
2022-10-04T16:11:55.671Z,69.33
2022-10-04T16:14:48.895Z,69.51
2022-10-04T16:17:29.430Z,69.83
2022-10-04T16:20:23.787Z,69.82
2022-10-04T16:23:24.596Z,69.83
2022-10-04T16:26:16.281Z,70.02
2022-10-04T16:29:05.265Z,70.31
2022-10-04T16:32:05.541Z,70.28
2022-10-04T16:35:01.164Z,70.42
2022-10-04T16:37:44.361Z,70.82
2022-10-04T16:40:54.727Z,70.92
2022-10-04T16:43:32.718Z,71.06
2022-10-04T16:46:20.363Z,71.53
2022-10-04T16:49:05.293Z,71.91
2022-10-04T16:51:53.239Z,72.00
2022-10-04T16:54:50.973Z,72.16
2022-10-04T16:57:28.009Z,72.32
2022-10-04T17:00:05.911Z,72.64
2022-10-04T17:02:52.071Z,72.83
2022-10-04T17:05:54.416Z,73.10
2022-10-04T17:08:50.248Z,73.41
2022-10-04T17:12:06.245Z,73.76
2022-10-04T17:14:46.436Z,73.91
2022-10-04T17:17:47.640Z,74.28
2022-10-04T17:21:02.321Z,74.43
2022-10-04T17:23:48.725Z,74.72
2022-10-04T17:26:42.204Z,75.19
2022-10-04T17:29:26.190Z,75.43
2022-10-04T17:32:35.993Z,75.48
2022-10-04T17:35:39.379Z,75.61
2022-10-04T17:38:39.306Z,75.85
2022-10-04T17:41:35.196Z,75.94
2022-10-04T17:44:47.736Z,76.04
2022-10-04T17:47:29.517Z,76.11
2022-10-04T17:50:33.099Z,76.17
2022-10-04T17:53:28.548Z,76.22
2022-10-04T17:56:04.483Z,76.27
2022-10-04T17:58:54.168Z,76.10
2022-10-04T18:01:32.260Z,76.28
2022-10-04T18:04:17.644Z,76.42
2022-10-04T18:06:58.717Z,76.55
2022-10-04T18:10:00.090Z,76.71
2022-10-04T18:12:43.308Z,76.85
2022-10-04T18:15:39.574Z,76.87
2022-10-04T18:18:25.116Z,76.87
2022-10-04T18:21:27.696Z,76.91
2022-10-04T18:24:06.267Z,77.18
2022-10-04T18:26:41.786Z,77.32
2022-10-04T18:29:15.145Z,77.44
2022-10-04T18:31:50.394Z,77.50
2022-10-04T18:34:32.410Z,77.53
2022-10-04T18:37:37.213Z,77.37
2022-10-04T18:40:19.855Z,77.37
2022-10-04T18:42:58.673Z,77.46
2022-10-04T18:45:34.195Z,77.38
2022-10-04T18:48:19.254Z,77.45
2022-10-04T18:50:52.722Z,77.53
2022-10-04T18:53:35.963Z,77.47
2022-10-04T18:56:11.981Z,77.33
2022-10-04T18:59:28.155Z,77.28
2022-10-04T19:02:27.884Z,77.25
2022-10-04T19:05:26.992Z,77.08
2022-10-04T19:08:23.843Z,77.02
2022-10-04T19:11:25.097Z,77.05
2022-10-04T19:14:46.720Z,77.36
2022-10-04T19:17:27.732Z,77.41
2022-10-04T19:20:48.465Z,77.39
2022-10-04T19:23:37.882Z,77.48
2022-10-04T19:26:32.416Z,77.33
2022-10-04T19:29:05.991Z,77.45
2022-10-04T19:31:49.552Z,77.49
2022-10-04T19:34:39.003Z,77.67
2022-10-04T19:37:28.281Z,77.54
2022-10-04T19:40:31.749Z,77.49
2022-10-04T19:43:18.585Z,77.45
2022-10-04T19:46:12.756Z,77.54
2022-10-04T19:48:53.378Z,77.50
2022-10-04T19:51:42.287Z,77.51
2022-10-04T19:54:17.246Z,77.54
2022-10-04T19:56:51.852Z,77.67
2022-10-04T19:59:40.345Z,77.75
2022-10-04T20:02:15.155Z,78.05
2022-10-04T20:04:49.261Z,78.26
2022-10-04T20:07:30.573Z,78.31
2022-10-04T20:10:33.765Z,78.28
2022-10-04T20:13:24.366Z,78.23
2022-10-04T20:16:01.466Z,78.19
2022-10-04T20:18:43.181Z,78.21
2022-10-04T20:21:25.588Z,78.28
2022-10-04T20:23:57.484Z,78.58
2022-10-04T20:26:56.500Z,78.64
2022-10-04T20:29:46.248Z,78.83
2022-10-04T20:32:37.289Z,78.96
2022-10-04T20:35:20.724Z,78.96
2022-10-04T20:38:30.707Z,79.07
2022-10-04T20:40:46.910Z,79.14
2022-10-04T20:43:26.726Z,79.41
2022-10-04T20:46:01.233Z,79.55
2022-10-04T20:48:34.487Z,79.68
2022-10-04T20:51:11.041Z,79.72
2022-10-04T20:53:50.083Z,79.81
2022-10-04T20:56:32.069Z,79.86
2022-10-04T20:59:06.694Z,80.08
2022-10-04T21:01:42.011Z,80.11
2022-10-04T21:04:33.063Z,80.33
2022-10-04T21:07:08.753Z,80.36
2022-10-04T21:09:43.194Z,80.54
2022-10-04T21:12:37.638Z,80.56
2022-10-04T21:15:23.465Z,80.74
2022-10-04T21:18:11.261Z,80.99
2022-10-04T21:20:53.106Z,81.00
2022-10-04T21:23:31.557Z,81.18
2022-10-04T21:26:25.073Z,81.38
2022-10-04T21:28:59.727Z,81.65
2022-10-04T21:31:34.196Z,81.98
2022-10-04T21:34:07.219Z,81.89
2022-10-04T21:36:40.397Z,81.90
2022-10-04T21:39:13.222Z,81.73
2022-10-04T21:41:48.002Z,81.83
2022-10-04T21:44:21.507Z,81.81
2022-10-04T21:46:54.348Z,81.91
2022-10-04T21:49:28.004Z,82.10
2022-10-04T21:52:01.039Z,82.31
2022-10-04T21:54:34.227Z,82.73
2022-10-04T21:57:08.992Z,82.46
2022-10-04T21:59:42.054Z,82.28
2022-10-04T22:02:15.282Z,82.43
2022-10-04T22:04:48.451Z,82.83
2022-10-04T22:07:21.964Z,83.05
2022-10-04T22:09:55.156Z,83.29
2022-10-04T22:12:28.154Z,83.53
2022-10-04T22:15:01.117Z,83.60
2022-10-04T22:17:35.222Z,83.85
2022-10-04T22:20:09.142Z,84.28
2022-10-04T22:22:42.177Z,84.22
2022-10-04T22:25:21.569Z,84.30
2022-10-04T22:27:55.166Z,84.14
2022-10-04T22:30:32.715Z,84.12
2022-10-04T22:33:08.805Z,84.03
2022-10-04T22:35:41.679Z,83.96
2022-10-04T22:38:14.642Z,83.81
2022-10-04T22:40:47.347Z,83.85
2022-10-04T22:43:20.610Z,83.83
2022-10-04T22:45:54.275Z,83.73
2022-10-04T22:48:28.639Z,83.56
2022-10-04T22:51:03.522Z,83.35
2022-10-04T22:53:36.663Z,83.36
2022-10-04T22:56:09.777Z,83.61
2022-10-04T22:58:43.750Z,83.87
2022-10-04T23:01:19.342Z,83.85
2022-10-04T23:03:52.291Z,83.80
2022-10-04T23:06:25.775Z,83.82
2022-10-04T23:08:59.662Z,83.77
2022-10-04T23:11:35.522Z,83.60
2022-10-04T23:14:08.655Z,83.42
2022-10-04T23:16:43.895Z,83.54
2022-10-04T23:19:20.471Z,83.52
2022-10-04T23:21:53.795Z,83.44
2022-10-04T23:24:26.873Z,83.30
2022-10-04T23:26:59.597Z,83.31
2022-10-04T23:29:35.431Z,83.41
2022-10-04T23:32:19.322Z,83.51
2022-10-04T23:34:56.668Z,83.72
2022-10-04T23:37:31.201Z,83.86
2022-10-04T23:40:04.267Z,83.83
2022-10-04T23:42:37.332Z,83.85
2022-10-04T23:45:20.486Z,83.97
2022-10-04T23:47:58.805Z,84.21
2022-10-04T23:50:37.603Z,84.24
2022-10-04T23:53:14.609Z,84.31
2022-10-04T23:55:49.193Z,84.40
2022-10-04T23:58:26.330Z,84.44
